Time;durP1;ratioP1;P1;durP2;ratioP2;P2;SDS_P1;SDS_P2;PMS_P1;PMS_P2;Temp;Humidity;BMP_temperature;BMP_pressure;BME280_temperature;BME280_humidity;BME280_pressure;Samples;Min_cycle;Max_cycle;Signal;HPM_P1;HPM_P2
2022/11/24 00:01:10;;;;;;;0.22;0.22;;;5.00;99.90;;;;;;5030832;28;20047;-63
2022/11/24 00:03:37;;;;;;;0.63;0.35;;;5.00;99.90;;;;;;5013618;28;20068;-62
2022/11/24 00:06:08;;;;;;;;;;;5.00;99.90;;;;;;5032796;28;20036;-63
2022/11/24 00:08:36;;;;;;;1.20;0.47;;;5.00;99.90;;;;;;5032081;28;19925;-62
2022/11/24 00:11:13;;;;;;;1.00;0.40;;;5.00;99.90;;;;;;5032497;28;20422;-64
2022/11/24 00:13:42;;;;;;;5.15;0.70;;;4.90;99.90;;;;;;5027814;28;20053;-63
2022/11/24 00:16:16;;;;;;;0.70;0.63;;;4.90;99.90;;;;;;5030472;28;20045;-63
2022/11/24 00:18:45;;;;;;;6.18;0.90;;;4.90;99.90;;;;;;5030706;28;20486;-63
2022/11/24 00:21:13;;;;;;;6.22;0.88;;;4.80;99.90;;;;;;5015769;28;20048;-62
2022/11/24 00:23:40;;;;;;;3.85;0.65;;;4.80;99.90;;;;;;5032363;28;20461;-63
2022/11/24 00:26:15;;;;;;;4.95;0.88;;;4.80;99.90;;;;;;5012627;28;20135;-63
2022/11/24 00:28:44;;;;;;;5.07;1.30;;;4.70;99.90;;;;;;5031045;28;20418;-63
2022/11/24 00:31:15;;;;;;;8.93;1.20;;;4.70;99.90;;;;;;5014922;28;20315;-62
2022/11/24 00:33:48;;;;;;;1.27;0.98;;;4.70;99.90;;;;;;5028925;28;20072;-65
2022/11/24 00:36:16;;;;;;;1.35;1.02;;;4.60;99.90;;;;;;5034666;28;20060;-62
2022/11/24 00:38:44;;;;;;;3.72;1.48;;;4.60;99.90;;;;;;5032376;28;20068;-63
2022/11/24 00:41:10;;;;;;;4.43;1.20;;;4.60;99.90;;;;;;5027372;28;20053;-63
2022/11/24 00:43:37;;;;;;;4.88;1.40;;;4.60;99.90;;;;;;5029287;28;20095;-62
2022/11/24 00:46:04;;;;;;;11.77;1.55;;;4.60;99.90;;;;;;5030415;28;20040;-62
2022/11/24 00:48:31;;;;;;;4.35;1.40;;;4.60;99.90;;;;;;5030203;28;20269;-62
2022/11/24 00:51:04;;;;;;;4.25;1.55;;;4.60;99.90;;;;;;5031706;28;20048;-62
2022/11/24 00:53:31;;;;;;;6.72;1.60;;;4.60;99.90;;;;;;5027653;28;20359;-63
2022/11/24 00:55:58;;;;;;;7.22;1.85;;;4.60;99.90;;;;;;5029140;28;20314;-62
2022/11/24 00:58:25;;;;;;;5.55;1.58;;;4.60;99.90;;;;;;5030326;28;20223;-63
2022/11/24 01:00:52;;;;;;;4.05;1.60;;;4.60;99.90;;;;;;5028295;28;20744;-64
2022/11/24 01:03:20;;;;;;;7.70;2.03;;;4.60;99.90;;;;;;5026570;28;20106;-61
2022/11/24 01:05:47;;;;;;;6.50;1.35;;;4.60;99.90;;;;;;4996203;28;20107;-65
2022/11/24 01:08:14;;;;;;;9.52;2.55;;;4.60;99.90;;;;;;5026703;28;20366;-65
2022/11/24 01:10:41;;;;;;;10.68;2.03;;;4.70;99.90;;;;;;5031881;28;20043;-66
2022/11/24 01:13:08;;;;;;;2.97;1.80;;;4.70;99.90;;;;;;5028107;28;20103;-63
2022/11/24 01:15:35;;;;;;;6.40;1.70;;;4.70;99.90;;;;;;5028631;28;20768;-64
2022/11/24 01:18:03;;;;;;;9.35;1.85;;;4.70;99.90;;;;;;5026798;28;20359;-63
2022/11/24 01:20:31;;;;;;;11.90;2.15;;;4.70;99.90;;;;;;5030339;28;20045;-64
2022/11/24 01:22:57;;;;;;;11.65;2.83;;;4.70;99.90;;;;;;5025931;28;20059;-64
2022/11/24 01:25:24;;;;;;;7.72;1.48;;;4.80;99.90;;;;;;5029284;28;20041;-64
2022/11/24 01:27:51;;;;;;;;;;;4.80;99.90;;;;;;5028630;28;20562;-63
2022/11/24 01:30:18;;;;;;;7.85;1.98;;;4.80;99.90;;;;;;5027797;28;19928;-64
2022/11/24 01:32:45;;;;;;;6.95;1.67;;;4.80;99.90;;;;;;5012025;28;20755;-63
2022/11/24 01:35:11;;;;;;;4.95;1.67;;;4.80;99.90;;;;;;5028139;28;20155;-63
2022/11/24 01:37:38;;;;;;;14.18;2.15;;;4.80;99.90;;;;;;5029258;28;20052;-63
2022/11/24 01:40:05;;;;;;;;;;;4.90;99.90;;;;;;5014444;28;20569;-62
2022/11/24 01:42:47;;;;;;;7.07;2.22;;;4.90;99.90;;;;;;5028932;28;20027;-63
2022/11/24 01:45:30;;;;;;;14.57;2.53;;;4.90;99.90;;;;;;5028705;28;20500;-63
2022/11/24 01:47:59;;;;;;;4.85;1.35;;;4.90;99.90;;;;;;5030561;28;20484;-63
2022/11/24 01:50:26;;;;;;;22.23;3.03;;;4.90;99.90;;;;;;5029717;28;20055;-63
2022/11/24 01:52:55;;;;;;;11.32;1.60;;;4.90;99.90;;;;;;5029753;28;20846;-63
2022/11/24 01:55:28;;;;;;;8.05;1.88;;;4.90;99.90;;;;;;5029983;28;20049;-63
2022/11/24 01:58:11;;;;;;;10.15;2.00;;;5.00;99.90;;;;;;5029700;28;20051;-62
2022/11/24 02:00:41;;;;;;;10.68;2.17;;;5.00;99.90;;;;;;5027451;28;20122;-63
2022/11/24 02:03:12;;;;;;;9.35;2.13;;;5.00;99.90;;;;;;4994158;28;20647;-63
2022/11/24 02:05:56;;;;;;;14.50;2.03;;;5.00;99.90;;;;;;5028672;28;20295;-64
2022/11/24 02:08:30;;;;;;;5.93;1.80;;;5.10;99.90;;;;;;5032508;28;20036;-63
2022/11/24 02:10:56;;;;;;;19.08;2.50;;;5.30;99.90;;;;;;5030491;28;20055;-63
2022/11/24 02:13:23;;;;;;;;;;;5.40;99.90;;;;;;5029698;28;20374;-63
2022/11/24 02:15:52;;;;;;;9.63;1.27;;;5.60;99.90;;;;;;5034178;28;20244;-63
2022/11/24 02:18:18;;;;;;;7.30;1.80;;;5.70;99.90;;;;;;5033943;28;20114;-63
2022/11/24 02:20:45;;;;;;;10.30;2.45;;;5.70;99.90;;;;;;5030802;28;20033;-64
2022/11/24 02:23:20;;;;;;;;;;;5.80;99.90;;;;;;5028588;28;20294;-63
2022/11/24 02:26:06;;;;;;;12.50;2.30;;;5.70;99.90;;;;;;5031404;28;19924;-64
2022/11/24 02:28:33;;;;;;;7.85;2.72;;;5.70;99.90;;;;;;4996464;28;20054;-64
2022/11/24 02:31:01;;;;;;;6.68;1.67;;;5.70;99.90;;;;;;5028807;28;20289;-64
2022/11/24 02:33:28;;;;;;;8.23;1.52;;;5.60;99.90;;;;;;5025684;28;20041;-63
2022/11/24 02:35:55;;;;;;;3.08;1.25;;;5.60;99.90;;;;;;5025820;28;20481;-63
2022/11/24 02:38:28;;;;;;;;;;;5.60;99.90;;;;;;5027461;28;20041;-63
2022/11/24 02:40:56;;;;;;;3.80;1.08;;;5.60;99.90;;;;;;5028072;28;20879;-64
2022/11/24 02:43:24;;;;;;;15.60;3.13;;;5.50;99.90;;;;;;5026619;28;20049;-63
2022/11/24 02:45:51;;;;;;;13.05;2.60;;;5.50;99.90;;;;;;5012249;28;20047;-63
2022/11/24 02:48:17;;;;;;;4.15;1.42;;;5.40;99.90;;;;;;5027366;28;20069;-63
2022/11/24 02:50:44;;;;;;;;;;;5.40;99.90;;;;;;5027438;28;20087;-63
2022/11/24 02:53:11;;;;;;;11.40;2.83;;;5.40;99.90;;;;;;5024752;28;19983;-64
2022/11/24 02:55:38;;;;;;;;;;;5.30;99.90;;;;;;5025599;28;20048;-63
2022/11/24 02:58:04;;;;;;;14.00;2.35;;;5.30;99.90;;;;;;5029482;28;19925;-62
2022/11/24 03:00:31;;;;;;;;;;;5.30;99.90;;;;;;5031289;28;20122;-63
2022/11/24 03:02:58;;;;;;;3.38;1.05;;;5.30;99.90;;;;;;5030898;28;19929;-64
2022/11/24 03:05:24;;;;;;;;;;;5.30;99.90;;;;;;5035347;28;20159;-64
2022/11/24 03:07:51;;;;;;;4.65;1.30;;;5.30;99.90;;;;;;5014586;28;19998;-63
2022/11/24 03:10:18;;;;;;;;;;;5.20;99.90;;;;;;5033515;28;20075;-63
2022/11/24 03:12:44;;;;;;;4.28;1.48;;;5.20;99.90;;;;;;5028588;28;19931;-64
2022/11/24 03:15:11;;;;;;;7.22;1.60;;;5.10;99.90;;;;;;5030299;28;20585;-64
2022/11/24 03:17:38;;;;;;;6.45;1.38;;;5.10;99.90;;;;;;5035363;28;20139;-64
2022/11/24 03:20:05;;;;;;;;;;;5.00;99.90;;;;;;5033310;28;20049;-64
2022/11/24 03:22:32;;;;;;;6.80;2.13;;;5.00;99.90;;;;;;5032804;28;19924;-63
2022/11/24 03:24:58;;;;;;;9.25;1.30;;;4.90;99.90;;;;;;5033801;28;20047;-63
2022/11/24 03:27:25;;;;;;;7.57;2.67;;;4.90;99.90;;;;;;5033567;28;20047;-63
2022/11/24 03:29:52;;;;;;;6.15;1.30;;;4.90;99.90;;;;;;5032025;28;20136;-63
2022/11/24 03:32:19;;;;;;;;;;;5.00;99.90;;;;;;5016727;28;20045;-63
2022/11/24 03:34:46;;;;;;;15.88;2.17;;;5.00;99.90;;;;;;5032394;28;20108;-63
2022/11/24 03:37:13;;;;;;;14.88;1.90;;;5.00;99.90;;;;;;5032750;28;20044;-63
2022/11/24 03:39:39;;;;;;;16.08;2.13;;;5.10;99.90;;;;;;5033954;28;20085;-63
2022/11/24 03:42:06;;;;;;;6.03;1.48;;;5.10;99.90;;;;;;5033714;28;20248;-63
2022/11/24 03:44:33;;;;;;;;;;;5.20;99.90;;;;;;5030003;28;20049;-62
2022/11/24 03:47:00;;;;;;;3.78;1.30;;;5.20;99.90;;;;;;5035122;28;20373;-63
2022/11/24 03:49:27;;;;;;;9.20;2.25;;;5.20;99.90;;;;;;5032148;28;20056;-62
2022/11/24 03:51:53;;;;;;;7.45;1.90;;;5.20;99.90;;;;;;5030754;28;20075;-62
2022/11/24 03:54:20;;;;;;;13.50;2.20;;;5.20;99.90;;;;;;5030343;28;20055;-62
2022/11/24 03:56:47;;;;;;;9.90;1.42;;;5.20;99.90;;;;;;5031114;28;20045;-63
2022/11/24 03:59:14;;;;;;;;;;;5.30;99.90;;;;;;5036942;28;20087;-63
2022/11/24 04:01:41;;;;;;;13.27;1.73;;;5.20;99.90;;;;;;5031767;28;19931;-63
2022/11/24 04:04:09;;;;;;;;;;;5.20;99.90;;;;;;5030261;28;20049;-62
2022/11/24 04:06:36;;;;;;;7.93;1.60;;;5.20;99.90;;;;;;5034540;28;20275;-62
2022/11/24 04:09:03;;;;;;;;;;;5.10;99.90;;;;;;5033219;28;20629;-63
2022/11/24 04:14:15;;;;;;;9.27;1.67;;;4.90;99.90;;;;;;5031477;28;20416;-63
2022/11/24 04:16:42;;;;;;;18.25;2.75;;;4.90;99.90;;;;;;5031866;28;20132;-63
2022/11/24 04:19:08;;;;;;;10.68;2.25;;;4.80;99.90;;;;;;5031951;28;20045;-63
2022/11/24 04:21:35;;;;;;;;;;;4.80;99.90;;;;;;5028783;28;20240;-62
2022/11/24 04:24:02;;;;;;;20.25;3.63;;;4.80;99.90;;;;;;5028242;28;20160;-63
2022/11/24 04:26:29;;;;;;;;;;;4.70;99.90;;;;;;5030456;28;20502;-62
2022/11/24 04:28:55;;;;;;;12.80;2.25;;;4.70;99.90;;;;;;5032763;28;19930;-62
2022/11/24 04:31:22;;;;;;;;;;;4.70;99.90;;;;;;5034013;28;20110;-62
2022/11/24 04:33:49;;;;;;;12.60;2.85;;;4.60;99.90;;;;;;5030936;28;20548;-62
2022/11/24 04:36:15;;;;;;;17.33;2.72;;;4.60;99.90;;;;;;5026868;28;20041;-63
2022/11/24 04:38:42;;;;;;;18.60;2.45;;;4.60;99.90;;;;;;5029582;28;20047;-63
2022/11/24 04:41:29;;;;;;;12.82;3.25;;;4.60;99.90;;;;;;5028555;28;20296;-62
2022/11/24 04:43:55;;;;;;;12.85;2.78;;;4.60;99.90;;;;;;5014461;28;20501;-62
2022/11/24 04:46:22;;;;;;;9.43;1.98;;;4.60;99.90;;;;;;5031727;28;20391;-62
2022/11/24 04:48:49;;;;;;;8.82;2.13;;;4.60;99.90;;;;;;5028777;28;20044;-62
2022/11/24 04:51:16;;;;;;;;;;;4.60;99.90;;;;;;5030159;28;20444;-63
2022/11/24 04:53:42;;;;;;;7.82;1.70;;;4.60;99.90;;;;;;5029247;28;20027;-62
2022/11/24 04:56:09;;;;;;;;;;;4.60;99.90;;;;;;5031098;28;20106;-62
2022/11/24 04:58:36;;;;;;;16.27;2.33;;;4.60;99.90;;;;;;5032258;28;19930;-63
2022/11/24 05:01:05;;;;;;;;;;;4.60;99.90;;;;;;5031728;28;20045;-63
2022/11/24 05:03:32;;;;;;;8.55;1.88;;;4.60;99.90;;;;;;5028879;28;20001;-62
2022/11/24 05:05:59;;;;;;;10.85;1.92;;;4.60;99.90;;;;;;5026994;28;20068;-63
2022/11/24 05:08:25;;;;;;;12.48;1.83;;;4.50;99.90;;;;;;5031456;28;20037;-63
2022/11/24 05:10:52;;;;;;;;;;;4.50;99.90;;;;;;5030448;28;20654;-62
2022/11/24 05:13:19;;;;;;;7.05;1.60;;;4.50;99.90;;;;;;5030696;28;19924;-62
2022/11/24 05:15:45;;;;;;;13.52;2.33;;;4.50;99.90;;;;;;5030441;28;20049;-63
2022/11/24 05:18:14;;;;;;;;;;;4.50;99.90;;;;;;5028563;28;20558;-62
2022/11/24 05:20:43;;;;;;;7.38;1.98;;;4.50;99.90;;;;;;5029358;28;19931;-63
2022/11/24 05:23:10;;;;;;;9.02;2.08;;;4.50;99.90;;;;;;5027365;28;20047;-61
2022/11/24 05:25:37;;;;;;;12.02;2.03;;;4.40;99.90;;;;;;5031244;28;20148;-51
2022/11/24 05:28:08;;;;;;;8.73;2.22;;;4.50;99.90;;;;;;5030886;28;20041;-50
2022/11/24 05:30:37;;;;;;;14.20;2.10;;;4.50;99.90;;;;;;5029927;28;20050;-50
2022/11/24 05:33:10;;;;;;;12.00;2.45;;;4.50;99.90;;;;;;5029178;28;20045;-53
2022/11/24 05:35:37;;;;;;;5.70;1.63;;;4.50;99.90;;;;;;5030171;28;20086;-52
2022/11/24 05:38:04;;;;;;;8.68;1.92;;;4.50;99.90;;;;;;5035419;28;20528;-53
2022/11/24 05:40:31;;;;;;;;;;;4.50;99.90;;;;;;5030325;28;20781;-51
2022/11/24 05:42:57;;;;;;;14.23;1.60;;;4.60;99.90;;;;;;5027529;28;19947;-51
2022/11/24 05:45:24;;;;;;;6.90;3.38;;;4.60;99.90;;;;;;5032008;28;20577;-52
2022/11/24 05:47:52;;;;;;;13.48;2.40;;;4.60;99.90;;;;;;5030513;28;20033;-51
2022/11/24 05:50:21;;;;;;;8.75;2.45;;;4.60;99.90;;;;;;5015357;28;20045;-51
2022/11/24 05:52:48;;;;;;;7.47;2.58;;;4.50;99.90;;;;;;5029330;28;20055;-52
2022/11/24 05:55:18;;;;;;;14.25;2.75;;;4.50;99.90;;;;;;5028907;28;20056;-51
2022/11/24 05:57:45;;;;;;;10.90;2.22;;;4.50;99.90;;;;;;5029449;28;20060;-51
2022/11/24 06:00:12;;;;;;;6.63;2.30;;;4.50;99.90;;;;;;5027481;28;20051;-54
2022/11/24 06:02:39;;;;;;;14.30;2.35;;;4.40;99.90;;;;;;4998393;28;20036;-52
2022/11/24 06:05:06;;;;;;;15.25;2.63;;;4.40;99.90;;;;;;5027815;28;20442;-52
2022/11/24 06:07:34;;;;;;;13.48;2.58;;;4.40;99.90;;;;;;5027710;28;20045;-51
2022/11/24 06:10:00;;;;;;;14.40;2.15;;;4.30;99.90;;;;;;5032352;28;20045;-51
2022/11/24 06:12:27;;;;;;;;;;;4.20;99.90;;;;;;5030987;28;20761;-49
2022/11/24 06:14:54;;;;;;;18.08;3.17;;;4.20;99.90;;;;;;5033542;28;20442;-51
2022/11/24 06:17:21;;;;;;;7.15;1.70;;;4.20;99.90;;;;;;5028618;28;20071;-53
2022/11/24 06:19:49;;;;;;;7.60;2.00;;;4.20;99.90;;;;;;5028538;28;20130;-52
2022/11/24 06:22:17;;;;;;;7.93;1.80;;;4.20;99.90;;;;;;5013103;28;20076;-55
2022/11/24 06:24:45;;;;;;;7.70;2.15;;;4.20;99.90;;;;;;5028658;28;20076;-52
2022/11/24 06:27:12;;;;;;;9.23;2.20;;;4.20;99.90;;;;;;5030135;28;20342;-52
2022/11/24 06:29:39;;;;;;;12.70;2.92;;;4.20;99.90;;;;;;5028864;28;20045;-50
2022/11/24 06:32:05;;;;;;;7.10;2.75;;;4.20;99.90;;;;;;5030232;28;20048;-52
2022/11/24 06:34:32;;;;;;;;;;;4.20;99.90;;;;;;5031897;28;20045;-53
2022/11/24 06:36:59;;;;;;;7.97;2.38;;;4.20;99.90;;;;;;5033229;28;19931;-49
2022/11/24 06:39:26;;;;;;;;;;;4.20;99.90;;;;;;5031608;28;20637;-48
2022/11/24 06:41:53;;;;;;;15.02;2.50;;;4.20;99.90;;;;;;5031660;28;19924;-52
2022/11/24 06:44:21;;;;;;;12.10;1.88;;;4.30;99.90;;;;;;5033089;28;20076;-52
2022/11/24 06:46:48;;;;;;;12.32;1.85;;;4.40;99.90;;;;;;5033898;28;20053;-50
2022/11/24 06:49:15;;;;;;;10.88;1.77;;;4.40;99.90;;;;;;5035074;28;20043;-50
2022/11/24 06:51:42;;;;;;;9.77;1.85;;;4.50;99.90;;;;;;5029043;28;20037;-54
2022/11/24 06:54:09;;;;;;;;;;;4.50;99.90;;;;;;5032900;28;20187;-53
2022/11/24 06:56:36;;;;;;;10.10;2.15;;;4.60;99.90;;;;;;5018237;28;19924;-52
2022/11/24 06:59:02;;;;;;;;;;;4.60;99.90;;;;;;5032768;28;20219;-52
2022/11/24 07:01:29;;;;;;;9.55;1.60;;;4.70;99.90;;;;;;5030082;28;19924;-53
2022/11/24 07:03:57;;;;;;;9.43;2.10;;;4.80;99.90;;;;;;5032143;28;20334;-53
2022/11/24 07:06:25;;;;;;;11.15;1.90;;;4.90;99.90;;;;;;5030403;28;20473;-53
2022/11/24 07:08:52;;;;;;;12.25;2.30;;;5.00;99.90;;;;;;5031094;28;20432;-55
2022/11/24 07:11:20;;;;;;;;;;;5.00;99.90;;;;;;5031728;28;20590;-50
2022/11/24 07:13:47;;;;;;;15.05;2.58;;;5.00;99.90;;;;;;5031206;28;19924;-52
2022/11/24 07:16:19;;;;;;;8.23;1.92;;;5.10;99.90;;;;;;5037458;28;20036;-48
2022/11/24 07:18:47;;;;;;;10.65;2.58;;;5.10;99.90;;;;;;5031300;28;20048;-49
2022/11/24 07:21:15;;;;;;;6.22;1.50;;;5.20;99.90;;;;;;5033891;28;20432;-52
2022/11/24 07:23:42;;;;;;;13.25;3.08;;;5.20;99.90;;;;;;5030795;28;20452;-51
2022/11/24 07:26:09;;;;;;;13.07;2.53;;;5.20;99.90;;;;;;5033749;28;20517;-50
2022/11/24 07:28:36;;;;;;;10.05;2.53;;;5.20;99.90;;;;;;5035008;28;20499;-48
2022/11/24 07:31:06;;;;;;;14.30;2.28;;;5.20;99.90;;;;;;5033000;28;20123;-48
2022/11/24 07:33:33;;;;;;;11.82;2.45;;;5.20;99.90;;;;;;5014514;28;20719;-53
2022/11/24 07:36:00;;;;;;;6.13;1.80;;;5.20;99.90;;;;;;5029611;28;20562;-52
2022/11/24 07:38:28;;;;;;;12.65;2.42;;;5.30;99.90;;;;;;5032610;28;20465;-51
2022/11/24 07:41:06;;;;;;;5.78;1.30;;;5.30;99.90;;;;;;5034965;28;20306;-51
2022/11/24 07:43:35;;;;;;;10.52;1.75;;;5.30;99.90;;;;;;5033172;28;20045;-52
2022/11/24 07:46:04;;;;;;;16.95;2.72;;;5.30;99.90;;;;;;5033276;28;20326;-51
2022/11/24 07:48:32;;;;;;;7.72;2.00;;;5.30;99.90;;;;;;5031761;28;20139;-53
2022/11/24 07:50:59;;;;;;;7.00;1.67;;;5.40;99.90;;;;;;5031365;28;20056;-52
2022/11/24 07:53:27;;;;;;;14.48;1.73;;;5.50;99.90;;;;;;5031868;28;20723;-52
2022/11/24 07:56:01;;;;;;;12.23;2.05;;;5.50;99.90;;;;;;5030678;28;20796;-52
2022/11/24 07:58:30;;;;;;;5.90;2.05;;;5.60;99.90;;;;;;5029369;28;20063;-50
2022/11/24 08:01:00;;;;;;;10.48;2.10;;;5.70;99.90;;;;;;5031964;28;20430;-51
2022/11/24 08:03:26;;;;;;;11.95;3.25;;;5.80;99.90;;;;;;5030309;28;20447;-53
2022/11/24 08:05:58;;;;;;;12.48;2.10;;;5.90;99.90;;;;;;5032453;28;20052;-54
2022/11/24 08:08:45;;;;;;;7.03;1.40;;;5.90;99.90;;;;;;5029629;28;20135;-54
2022/11/24 08:11:15;;;;;;;12.80;2.42;;;6.00;99.90;;;;;;5032456;28;20586;-55
2022/11/24 08:13:42;;;;;;;9.85;1.90;;;6.00;99.90;;;;;;5029387;28;20053;-52
2022/11/24 08:16:11;;;;;;;9.38;2.28;;;6.00;99.90;;;;;;5029520;28;20049;-53
2022/11/24 08:18:39;;;;;;;10.25;1.88;;;6.10;99.90;;;;;;5029586;28;20492;-51
2022/11/24 08:21:07;;;;;;;11.07;2.17;;;6.10;99.90;;;;;;5027885;28;20056;-52
2022/11/24 08:23:34;;;;;;;13.10;2.78;;;6.20;99.90;;;;;;5027745;28;20041;-52
2022/11/24 08:26:04;;;;;;;;;;;6.20;99.90;;;;;;5010950;28;20389;-53
2022/11/24 08:28:31;;;;;;;9.75;2.53;;;6.30;99.90;;;;;;5031939;28;20524;-50
2022/11/24 08:31:04;;;;;;;10.82;2.20;;;6.30;99.90;;;;;;5018581;28;20060;-52
2022/11/24 08:33:31;;;;;;;9.75;1.30;;;6.40;99.90;;;;;;5030923;28;20060;-54
2022/11/24 08:36:03;;;;;;;6.45;1.90;;;6.40;99.90;;;;;;5031906;28;20514;-52
2022/11/24 08:38:30;;;;;;;8.82;1.98;;;6.50;99.90;;;;;;5012975;28;20183;-52
2022/11/24 08:41:00;;;;;;;;;;;6.50;99.90;;;;;;5014967;28;20049;-52
2022/11/24 08:43:27;;;;;;;9.52;2.63;;;6.60;99.90;;;;;;5031496;28;19932;-49
2022/11/24 08:45:57;;;;;;;14.25;2.13;;;6.60;99.90;;;;;;5033301;28;20170;-49
2022/11/24 08:48:24;;;;;;;7.53;2.05;;;6.70;99.90;;;;;;5030435;28;20068;-53
2022/11/24 08:50:51;;;;;;;10.40;2.17;;;6.80;99.90;;;;;;5029655;28;20051;-51
2022/11/24 08:53:18;;;;;;;9.38;1.88;;;6.90;99.90;;;;;;4994688;28;20059;-50
2022/11/24 08:55:44;;;;;;;11.23;2.13;;;6.90;99.90;;;;;;5029000;28;20499;-48
2022/11/24 08:58:11;;;;;;;13.43;2.45;;;7.00;99.90;;;;;;5024576;28;20053;-52
2022/11/24 09:00:38;;;;;;;;;;;7.00;99.90;;;;;;5002744;28;20045;-53
2022/11/24 09:03:04;;;;;;;14.18;2.42;;;7.10;99.90;;;;;;5012376;28;19931;-51
2022/11/24 09:05:32;;;;;;;;;;;7.10;99.90;;;;;;5029964;28;20033;-50
2022/11/24 09:08:19;;;;;;;13.35;1.90;;;7.20;99.90;;;;;;5031395;28;20296;-53
2022/11/24 09:10:46;;;;;;;14.27;2.58;;;7.10;99.90;;;;;;5027944;28;20032;-53
2022/11/24 09:13:12;;;;;;;;;;;7.00;99.90;;;;;;5028504;28;20425;-51
2022/11/24 09:15:39;;;;;;;7.22;2.13;;;6.80;99.90;;;;;;5035500;28;20349;-48
2022/11/24 09:18:06;;;;;;;6.82;1.88;;;6.70;99.90;;;;;;5027260;28;20048;-52
2022/11/24 09:20:33;;;;;;;7.40;1.63;;;6.60;99.90;;;;;;5031231;28;20102;-48
2022/11/24 09:23:00;;;;;;;;;;;6.50;99.90;;;;;;5012953;28;20075;-51
2022/11/24 09:25:26;;;;;;;11.02;1.85;;;6.40;99.90;;;;;;5012857;28;19998;-49
2022/11/24 09:27:53;;;;;;;8.00;1.60;;;6.30;99.90;;;;;;5030046;28;20553;-50
2022/11/24 09:30:22;;;;;;;9.68;1.67;;;6.20;99.90;;;;;;5031827;28;20608;-49
2022/11/24 09:32:48;;;;;;;6.82;1.38;;;6.10;99.90;;;;;;5029501;28;20223;-52
2022/11/24 09:35:15;;;;;;;8.60;1.77;;;6.10;99.90;;;;;;5027884;28;20569;-52
2022/11/24 09:37:44;;;;;;;12.95;2.03;;;6.10;99.90;;;;;;5030361;28;20120;-51
2022/11/24 09:40:15;;;;;;;8.63;1.45;;;6.00;99.90;;;;;;5027207;28;20045;-54
2022/11/24 09:43:32;;;;;;;6.53;2.00;;;6.00;99.90;;;;;;5028453;28;20179;-54
2022/11/24 09:46:10;;;;;;;9.23;1.20;;;5.90;99.90;;;;;;4927277;28;20162;-51
2022/11/24 09:48:45;;;;;;;7.20;1.80;;;5.90;99.90;;;;;;5016157;28;20653;-48
2022/11/24 09:51:13;;;;;;;7.15;1.40;;;5.80;99.90;;;;;;4997261;28;20645;-53
2022/11/24 09:53:45;;;;;;;6.50;1.52;;;5.80;99.90;;;;;;5030264;28;20428;-52
2022/11/24 09:56:15;;;;;;;9.43;1.80;;;5.80;99.90;;;;;;5028957;28;20036;-51
2022/11/24 09:58:56;;;;;;;10.43;2.05;;;5.70;99.90;;;;;;5027025;28;20053;-52
2022/11/24 10:01:28;;;;;;;8.80;1.70;;;5.70;99.90;;;;;;5026811;28;20060;-52
2022/11/24 10:03:55;;;;;;;6.40;1.58;;;5.60;99.90;;;;;;5028919;28;20040;-51
2022/11/24 10:06:43;;;;;;;5.32;1.35;;;5.60;99.90;;;;;;5026538;28;20110;-46
2022/11/24 10:09:31;;;;;;;8.25;1.45;;;5.60;99.90;;;;;;5029090;28;20506;-51
2022/11/24 10:12:14;;;;;;;10.15;1.83;;;5.60;99.90;;;;;;5026611;28;20354;-52
2022/11/24 10:15:12;;;;;;;18.95;2.60;;;5.50;99.90;;;;;;5030292;28;20045;-54
2022/11/24 10:17:58;;;;;;;6.63;2.33;;;5.60;99.90;;;;;;5027736;28;20657;-54
2022/11/24 10:20:29;;;;;;;8.93;2.35;;;5.60;99.90;;;;;;5027953;28;20435;-51
2022/11/24 10:23:09;;;;;;;9.40;3.20;;;5.70;99.90;;;;;;5028284;28;20124;-50
2022/11/24 10:25:53;;;;;;;15.73;6.30;;;5.80;99.90;;;;;;5029771;28;20051;-50
2022/11/24 10:28:19;;;;;;;8.48;2.80;;;5.90;99.90;;;;;;5028361;28;20110;-49
2022/11/24 10:30:47;;;;;;;;;;;6.10;99.90;;;;;;5028390;28;20836;-52
2022/11/24 10:33:19;;;;;;;7.55;0.82;;;6.20;99.90;;;;;;5012513;28;19925;-51
2022/11/24 10:36:05;;;;;;;7.00;3.28;;;6.50;99.90;;;;;;5025376;28;20033;-52
2022/11/24 10:38:49;;;;;;;7.18;1.13;;;6.90;99.90;;;;;;5030307;28;20045;-54
2022/11/24 10:41:35;;;;;;;7.72;1.30;;;7.40;99.90;;;;;;4996508;28;20048;-51
2022/11/24 10:44:01;;;;;;;2.40;0.88;;;8.00;99.90;;;;;;5027215;28;20073;-52
2022/11/24 10:46:29;;;;;;;3.92;0.75;;;8.50;99.90;;;;;;5026162;28;20045;-50
2022/11/24 10:49:04;;;;;;;4.70;1.05;;;8.90;99.90;;;;;;5012831;28;20076;-52
2022/11/24 10:51:50;;;;;;;7.72;1.13;;;9.10;99.90;;;;;;5031420;28;20216;-53
2022/11/24 10:54:19;;;;;;;5.70;2.20;;;9.20;99.90;;;;;;5027614;28;20324;-51
2022/11/24 10:56:52;;;;;;;6.70;1.67;;;9.00;99.90;;;;;;5026109;28;20151;-51
2022/11/24 10:59:19;;;;;;;7.05;1.75;;;8.80;99.90;;;;;;5031216;28;20746;-53
2022/11/24 11:01:46;;;;;;;12.90;2.15;;;8.60;99.90;;;;;;5028150;28;20215;-52
2022/11/24 11:04:24;;;;;;;4.80;1.35;;;8.40;99.90;;;;;;5029010;28;20043;-51
2022/11/24 11:06:50;;;;;;;8.85;2.08;;;8.20;99.90;;;;;;5027602;28;20321;-52
2022/11/24 11:09:21;;;;;;;6.60;1.80;;;8.10;99.90;;;;;;5029541;28;20037;-53
2022/11/24 11:11:52;;;;;;;9.23;1.92;;;7.90;99.90;;;;;;5026253;28;20305;-52
2022/11/24 11:14:34;;;;;;;4.70;1.15;;;7.90;99.90;;;;;;5027970;28;20127;-53
2022/11/24 11:17:02;;;;;;;7.93;1.42;;;7.90;99.90;;;;;;5028612;28;20072;-53
2022/11/24 11:19:38;;;;;;;7.43;1.40;;;8.00;99.90;;;;;;5027865;28;20053;-53
2022/11/24 11:22:34;;;;;;;12.10;2.05;;;7.90;99.90;;;;;;5032006;28;20226;-52
2022/11/24 11:25:03;;;;;;;6.32;1.92;;;8.00;99.90;;;;;;5028681;28;20037;-54
2022/11/24 11:27:30;;;;;;;4.95;1.23;;;8.10;99.90;;;;;;5036208;28;20053;-51
2022/11/24 11:30:26;;;;;;;13.15;2.08;;;8.20;99.90;;;;;;5033801;28;20119;-53
2022/11/24 11:33:24;;;;;;;5.78;1.23;;;8.20;99.90;;;;;;5030063;28;20375;-50
2022/11/24 11:36:12;;;;;;;7.05;1.50;;;8.40;99.90;;;;;;5032483;28;20044;-49
2022/11/24 11:38:40;;;;;;;12.85;1.70;;;8.50;99.90;;;;;;5029528;28;20116;-49
2022/11/24 11:41:18;;;;;;;10.20;1.95;;;8.60;99.90;;;;;;5033435;28;20063;-49
2022/11/24 11:43:49;;;;;;;11.57;1.58;;;8.80;99.90;;;;;;5033702;28;20048;-49
2022/11/24 11:46:16;;;;;;;7.22;1.55;;;8.90;99.90;;;;;;5030761;28;20763;-52
2022/11/24 11:48:45;;;;;;;10.77;2.20;;;8.90;99.90;;;;;;5030411;28;20037;-53
2022/11/24 11:51:38;;;;;;;10.05;1.50;;;8.90;99.90;;;;;;5031126;28;20041;-50
2022/11/24 11:54:25;;;;;;;7.35;1.85;;;8.80;99.90;;;;;;5029317;28;20045;-51
2022/11/24 11:57:06;;;;;;;10.00;2.08;;;8.70;99.90;;;;;;5028341;28;20123;-52
2022/11/24 11:59:33;;;;;;;6.45;1.60;;;8.50;99.90;;;;;;5032356;28;20512;-60
2022/11/24 12:02:21;;;;;;;9.27;1.48;;;8.30;99.90;;;;;;5032371;28;20052;-52
2022/11/24 12:04:59;;;;;;;;;;;8.20;99.90;;;;;;5029767;28;20036;-51
2022/11/24 12:07:44;;;;;;;5.05;1.35;;;8.00;99.90;;;;;;5031215;28;19955;-52
2022/11/24 12:10:26;;;;;;;6.85;2.15;;;7.90;99.90;;;;;;5028937;28;20051;-51
2022/11/24 12:13:35;;;;;;;5.97;1.52;;;7.70;99.90;;;;;;5027387;28;20442;-53
2022/11/24 12:16:26;;;;;;;4.75;1.92;;;7.60;99.90;;;;;;5030538;28;20537;-53
2022/11/24 12:19:18;;;;;;;5.85;1.92;;;7.50;99.90;;;;;;5015059;28;20126;-50
2022/11/24 12:22:00;;;;;;;11.98;1.95;;;7.40;99.90;;;;;;5029686;28;20348;-50
2022/11/24 12:24:40;;;;;;;11.07;1.80;;;7.40;99.90;;;;;;5029284;28;20099;-55
2022/11/24 12:27:40;;;;;;;4.35;1.60;;;7.30;99.90;;;;;;5028454;28;20058;-49
2022/11/24 12:30:16;;;;;;;10.95;2.30;;;7.20;99.90;;;;;;5030835;28;20608;-50
2022/11/24 12:32:59;;;;;;;10.13;2.22;;;7.20;99.90;;;;;;5029692;28;20079;-49
2022/11/24 12:36:04;;;;;;;10.82;1.85;;;7.10;99.90;;;;;;5030533;28;20388;-52
2022/11/24 12:38:57;;;;;;;15.95;2.20;;;7.10;99.90;;;;;;4946548;28;20142;-52
2022/11/24 12:41:37;;;;;;;14.68;2.83;;;7.00;99.90;;;;;;5029548;28;20064;-52
2022/11/24 12:44:38;;;;;;;11.20;2.13;;;7.00;99.90;;;;;;5030774;28;20525;-50
2022/11/24 12:47:22;;;;;;;10.43;3.53;;;7.00;99.90;;;;;;5029985;28;20138;-53
2022/11/24 12:49:59;;;;;;;10.50;2.40;;;6.90;99.90;;;;;;5029987;28;20037;-53
2022/11/24 12:52:32;;;;;;;8.73;1.98;;;7.00;99.90;;;;;;5031334;28;20049;-53
2022/11/24 12:55:00;;;;;;;11.50;2.50;;;6.90;99.90;;;;;;5016732;28;20058;-52
2022/11/24 12:57:35;;;;;;;18.98;3.13;;;6.80;99.90;;;;;;5030079;28;20599;-52
2022/11/24 13:00:14;;;;;;;14.73;2.35;;;6.80;99.90;;;;;;5009647;28;20302;-50
2022/11/24 13:02:59;;;;;;;11.05;2.90;;;6.80;99.90;;;;;;5013672;28;20048;-49
2022/11/24 13:05:36;;;;;;;10.55;2.10;;;6.90;99.90;;;;;;5025954;28;20040;-53
2022/11/24 13:08:04;;;;;;;6.70;1.85;;;7.00;99.90;;;;;;5028615;28;20052;-53
2022/11/24 13:10:36;;;;;;;3.45;1.85;;;7.20;99.90;;;;;;5032883;28;20068;-60
2022/11/24 13:13:27;;;;;;;14.35;2.97;;;7.50;99.90;;;;;;5025306;28;20258;-47
2022/11/24 13:15:54;;;;;;;12.85;2.58;;;7.70;99.90;;;;;;5029237;28;20049;-46
2022/11/24 13:18:57;;;;;;;7.20;2.08;;;7.90;99.90;;;;;;5026725;28;20230;-48
2022/11/24 13:21:50;;;;;;;13.02;2.13;;;7.90;99.90;;;;;;5030521;28;20056;-48
2022/11/24 13:24:17;;;;;;;10.35;2.35;;;8.20;99.90;;;;;;5027245;28;20553;-47
2022/11/24 13:26:50;;;;;;;12.32;2.50;;;8.60;99.90;;;;;;5029517;28;20044;-57